Time;durP1;ratioP1;P1;durP2;ratioP2;P2;SDS_P1;SDS_P2;PMS_P1;PMS_P2;Temp;Humidity;BMP_temperature;BMP_pressure;BME280_temperature;BME280_humidity;BME280_pressure;Samples;Min_cycle;Max_cycle;Signal;HPM_P1;HPM_P2
2021/07/19 00:00:18;;;;;;;;;;;24.50;48.30;;;;;;8329005;28;20011;-47
2021/07/19 00:04:18;;;;;;;;;;;24.50;48.30;;;;;;8328397;28;20385;-47
2021/07/19 00:08:19;;;;;;;;;;;24.50;48.30;;;;;;8333615;28;19928;-49
2021/07/19 00:12:19;;;;;;;;;;;24.50;48.30;;;;;;8328517;28;19917;-47
2021/07/19 00:16:20;;;;;;;;;;;24.40;48.30;;;;;;8328012;28;20012;-46
2021/07/19 00:20:20;;;;;;;;;;;24.40;48.30;;;;;;8328475;28;19971;-48
2021/07/19 00:24:21;;;;;;;;;;;24.40;48.30;;;;;;8332620;28;19914;-47
2021/07/19 00:28:21;;;;;;;;;;;24.40;48.40;;;;;;8327796;28;19917;-47
2021/07/19 00:32:21;;;;;;;;;;;24.40;48.40;;;;;;8328253;28;20389;-48
2021/07/19 00:36:22;;;;;;;;;;;24.40;48.30;;;;;;8327761;28;19925;-47
2021/07/19 00:40:24;;;;;;;;;;;24.40;48.30;;;;;;8331747;28;19963;-47
2021/07/19 00:44:24;;;;;;;;;;;24.40;48.40;;;;;;8328769;28;19928;-49
2021/07/19 00:48:25;;;;;;;;;;;24.40;48.40;;;;;;8327704;28;19953;-48
2021/07/19 00:52:26;;;;;;;;;;;24.30;48.30;;;;;;8327013;28;19917;-51
2021/07/19 00:56:27;;;;;;;;;;;24.40;48.40;;;;;;8326783;28;20428;-49
2021/07/19 01:00:28;;;;;;;;;;;24.40;48.40;;;;;;8331329;28;20000;-48
2021/07/19 01:04:30;;;;;;;;;;;24.30;48.40;;;;;;8327403;28;19917;-47
2021/07/19 01:08:31;;;;;;;;;;;24.30;48.40;;;;;;8326850;28;20297;-48
2021/07/19 01:12:32;;;;;;;;;;;24.30;48.40;;;;;;8326873;28;19913;-48
2021/07/19 01:16:33;;;;;;;;;;;24.30;48.40;;;;;;8330938;28;20324;-51
2021/07/19 01:20:52;;;;;;;;;;;24.30;48.40;;;;;;8326626;28;19917;-49
2021/07/19 01:25:11;;;;;;;;;;;24.30;48.40;;;;;;8326898;28;20332;-48
2021/07/19 01:29:13;;;;;;;;;;;24.30;48.40;;;;;;8311118;28;20015;-47
2021/07/19 01:33:15;;;;;;;;;;;24.30;48.40;;;;;;8300345;28;19928;-48
2021/07/19 01:37:16;;;;;;;;;;;24.30;48.40;;;;;;8330600;28;19983;-48
2021/07/19 01:41:19;;;;;;;;;;;24.30;48.50;;;;;;8326625;28;19964;-47
2021/07/19 01:45:19;;;;;;;;;;;24.30;48.50;;;;;;8326230;28;19963;-48
2021/07/19 01:49:21;;;;;;;;;;;24.30;48.50;;;;;;8325780;28;19917;-48
2021/07/19 01:53:22;;;;;;;;;;;24.20;48.40;;;;;;8326494;28;19925;-47
2021/07/19 01:57:23;;;;;;;;;;;24.20;48.50;;;;;;8330778;28;20382;-46
2021/07/19 02:01:24;;;;;;;;;;;24.20;48.50;;;;;;8325544;28;19918;-48
2021/07/19 02:05:25;;;;;;;;;;;24.20;48.60;;;;;;8326124;28;19932;-48
2021/07/19 02:09:26;;;;;;;;;;;24.20;48.50;;;;;;8328562;28;19924;-48
2021/07/19 02:13:27;;;;;;;;;;;24.20;48.60;;;;;;8336321;28;19929;-47
2021/07/19 02:17:29;;;;;;;;;;;24.20;48.60;;;;;;8332334;28;20374;-48
2021/07/19 02:21:30;;;;;;;;;;;24.20;48.50;;;;;;8314235;28;20396;-47
2021/07/19 02:25:31;;;;;;;;;;;24.20;48.60;;;;;;8307928;28;19917;-49
2021/07/19 02:29:32;;;;;;;;;;;24.20;48.50;;;;;;8336722;28;19995;-47
2021/07/19 02:33:34;;;;;;;;;;;24.10;48.50;;;;;;8331850;28;19929;-49
2021/07/19 02:37:38;;;;;;;;;;;24.10;48.50;;;;;;8331207;28;19917;-48
2021/07/19 02:41:39;;;;;;;;;;;24.20;48.50;;;;;;8331629;28;19917;-48
2021/07/19 02:45:41;;;;;;;;;;;24.10;48.50;;;;;;8328712;28;20008;-49
2021/07/19 02:49:42;;;;;;;;;;;24.10;48.50;;;;;;8302742;28;20295;-48
2021/07/19 02:53:43;;;;;;;;;;;24.10;49.10;;;;;;8325540;28;19972;-47
2021/07/19 02:57:44;;;;;;;;;;;24.10;48.60;;;;;;8330925;28;20127;-47
2021/07/19 03:01:45;;;;;;;;;;;24.10;48.50;;;;;;8330232;28;19944;-48
2021/07/19 03:05:49;;;;;;;;;;;24.10;48.60;;;;;;8335291;28;19929;-48
2021/07/19 03:09:52;;;;;;;;;;;24.10;48.60;;;;;;8330888;28;19949;-50
2021/07/19 03:13:55;;;;;;;;;;;24.10;48.60;;;;;;8309252;28;20048;-48
2021/07/19 03:17:57;;;;;;;;;;;24.10;48.60;;;;;;8310216;28;20019;-48
2021/07/19 03:21:58;;;;;;;;;;;24.10;48.60;;;;;;8329210;28;20058;-48
2021/07/19 03:25:59;;;;;;;;;;;24.00;48.60;;;;;;8334241;28;19913;-49
2021/07/19 03:30:00;;;;;;;;;;;24.10;48.60;;;;;;8330091;28;19924;-48
2021/07/19 03:34:02;;;;;;;;;;;24.10;48.60;;;;;;8329645;28;19951;-49
2021/07/19 03:38:03;;;;;;;;;;;24.00;48.60;;;;;;8329269;28;20364;-48
2021/07/19 03:42:03;;;;;;;;;;;24.00;48.60;;;;;;8334048;28;20386;-48
2021/07/19 03:46:04;;;;;;;;;;;24.00;48.60;;;;;;8329441;28;19917;-46
2021/07/19 03:50:05;;;;;;;;;;;24.00;48.60;;;;;;8309832;28;19924;-50
2021/07/19 03:54:06;;;;;;;;;;;24.00;49.20;;;;;;8306745;28;20348;-48
2021/07/19 03:58:07;;;;;;;;;;;24.00;48.70;;;;;;8330306;28;20346;-48
2021/07/19 04:02:12;;;;;;;;;;;24.00;48.70;;;;;;8331918;28;19920;-49
2021/07/19 04:06:14;;;;;;;;;;;24.00;48.70;;;;;;8328685;28;19947;-47
2021/07/19 04:10:15;;;;;;;;;;;24.00;48.70;;;;;;8328279;28;19924;-47
2021/07/19 04:14:17;;;;;;;;;;;24.00;48.70;;;;;;8328924;28;20364;-49
2021/07/19 04:18:18;;;;;;;;;;;24.00;48.70;;;;;;8333031;28;19913;-48
2021/07/19 04:22:19;;;;;;;;;;;24.00;48.70;;;;;;8328078;28;19917;-48
2021/07/19 04:26:19;;;;;;;;;;;24.00;48.70;;;;;;8328283;28;20051;-48
2021/07/19 04:30:20;;;;;;;;;;;23.90;48.70;;;;;;8328279;28;19963;-47
2021/07/19 04:34:30;;;;;;;;;;;24.00;48.70;;;;;;8331942;28;19944;-48
2021/07/19 04:38:30;;;;;;;;;;;23.90;48.70;;;;;;8330728;28;20315;-48
2021/07/19 04:42:31;;;;;;;;;;;23.90;48.70;;;;;;8327606;28;19921;-46
2021/07/19 04:46:31;;;;;;;;;;;23.90;48.70;;;;;;8327320;28;19999;-48
2021/07/19 04:50:32;;;;;;;;;;;23.90;48.70;;;;;;8327344;28;19921;-47
2021/07/19 04:54:38;;;;;;;;;;;23.90;48.70;;;;;;8331886;28;19966;-51
2021/07/19 04:58:39;;;;;;;;;;;23.90;49.20;;;;;;8326825;28;20362;-50
2021/07/19 05:02:40;;;;;;;;;;;23.80;48.70;;;;;;8327362;28;20374;-47
2021/07/19 05:06:44;;;;;;;;;;;23.90;48.80;;;;;;8327131;28;19921;-47
2021/07/19 05:10:45;;;;;;;;;;;23.80;48.70;;;;;;8330924;28;19975;-47
2021/07/19 05:14:45;;;;;;;;;;;23.80;48.70;;;;;;8327307;28;20012;-48
2021/07/19 05:18:46;;;;;;;;;;;23.90;48.80;;;;;;8326620;28;19924;-47
2021/07/19 05:22:47;;;;;;;;;;;23.90;48.80;;;;;;8326362;28;19940;-50
2021/07/19 05:26:49;;;;;;;;;;;23.80;48.80;;;;;;8326475;28;19926;-47
2021/07/19 05:30:51;;;;;;;;;;;23.90;48.80;;;;;;8331015;28;19913;-47
2021/07/19 05:34:51;;;;;;;;;;;23.90;48.80;;;;;;8326073;28;19925;-48
2021/07/19 05:38:52;;;;;;;;;;;23.90;48.70;;;;;;8326469;28;20367;-48
2021/07/19 05:42:52;;;;;;;;;;;23.90;48.70;;;;;;8326648;28;20015;-47
2021/07/19 05:46:53;;;;;;;;;;;23.90;48.60;;;;;;8337070;28;19917;-47
2021/07/19 05:50:53;;;;;;;;;;;24.00;48.50;;;;;;8332312;28;19979;-48
2021/07/19 05:54:56;;;;;;;;;;;24.00;48.50;;;;;;8333502;28;19925;-47
2021/07/19 05:58:56;;;;;;;;;;;24.00;48.50;;;;;;8332015;28;19917;-48
2021/07/19 06:02:57;;;;;;;;;;;24.00;48.60;;;;;;8333609;28;20400;-49
2021/07/19 06:06:57;;;;;;;;;;;23.90;48.60;;;;;;8335879;28;19943;-48
2021/07/19 06:10:58;;;;;;;;;;;23.90;48.60;;;;;;8331929;28;19917;-48
2021/07/19 06:14:59;;;;;;;;;;;23.90;48.60;;;;;;8332325;28;19944;-50
2021/07/19 06:18:59;;;;;;;;;;;23.90;48.60;;;;;;8332071;28;19971;-48
2021/07/19 06:23:01;;;;;;;;;;;23.90;48.60;;;;;;8336120;28;19913;-48
2021/07/19 06:27:01;;;;;;;;;;;23.90;48.60;;;;;;8332530;28;19918;-49
2021/07/19 06:31:02;;;;;;;;;;;23.90;48.70;;;;;;8331585;28;19920;-48
2021/07/19 06:35:03;;;;;;;;;;;23.90;48.70;;;;;;8331277;28;19979;-48
2021/07/19 06:39:04;;;;;;;;;;;23.90;48.70;;;;;;8336383;28;19968;-48
2021/07/19 06:43:04;;;;;;;;;;;23.90;48.70;;;;;;8331585;28;19927;-48
2021/07/19 06:47:05;;;;;;;;;;;23.90;48.70;;;;;;8330764;28;20374;-50
2021/07/19 06:51:06;;;;;;;;;;;23.90;48.70;;;;;;8330304;28;19914;-48
2021/07/19 06:55:07;;;;;;;;;;;23.90;48.70;;;;;;8329628;28;19980;-48
2021/07/19 06:59:08;;;;;;;;;;;23.90;48.70;;;;;;8334889;28;19917;-51
2021/07/19 07:03:08;;;;;;;;;;;23.90;48.70;;;;;;8330813;28;20359;-48
2021/07/19 07:07:09;;;;;;;;;;;23.90;48.70;;;;;;8330681;28;20405;-48
2021/07/19 07:11:09;;;;;;;;;;;23.90;48.70;;;;;;8330195;28;19917;-48
2021/07/19 07:15:10;;;;;;;;;;;23.90;48.70;;;;;;8335180;28;20389;-47
2021/07/19 07:19:10;;;;;;;;;;;23.90;48.60;;;;;;8330459;28;19917;-47
2021/07/19 07:23:11;;;;;;;;;;;23.90;48.60;;;;;;8329671;28;20267;-50
2021/07/19 07:27:12;;;;;;;;;;;23.90;48.60;;;;;;8330548;28;19928;-48
2021/07/19 07:31:12;;;;;;;;;;;23.90;48.70;;;;;;8334215;28;19920;-48
2021/07/19 07:35:13;;;;;;;;;;;23.90;48.70;;;;;;8329849;28;20382;-48
2021/07/19 07:39:14;;;;;;;;;;;23.90;48.70;;;;;;8329887;28;19956;-50
2021/07/19 07:43:14;;;;;;;;;;;23.90;48.70;;;;;;8329147;28;20329;-50
2021/07/19 07:47:15;;;;;;;;;;;23.90;48.70;;;;;;8329460;28;19925;-48
2021/07/19 07:51:15;;;;;;;;;;;23.90;48.70;;;;;;8333872;28;19920;-47
2021/07/19 07:55:16;;;;;;;;;;;23.90;48.70;;;;;;8328682;28;19952;-49
2021/07/19 07:59:16;;;;;;;;;;;23.90;48.70;;;;;;8329322;28;19924;-51
2021/07/19 08:03:17;;;;;;;;;;;23.90;48.70;;;;;;8329045;28;20309;-49
2021/07/19 08:07:17;;;;;;;;;;;23.90;48.70;;;;;;8332913;28;19996;-48
2021/07/19 08:11:18;;;;;;;;;;;24.00;48.70;;;;;;8328691;28;19964;-48
2021/07/19 08:15:18;;;;;;;;;;;24.00;48.70;;;;;;8328685;28;19925;-47
2021/07/19 08:19:19;;;;;;;;;;;24.00;48.70;;;;;;8327923;28;19948;-48
2021/07/19 08:23:20;;;;;;;;;;;24.00;48.70;;;;;;8330706;28;19967;-48
2021/07/19 08:27:20;;;;;;;;;;;24.00;48.70;;;;;;8331794;28;19914;-47
2021/07/19 08:31:22;;;;;;;;;;;24.00;48.80;;;;;;8327470;28;19917;-47
2021/07/19 08:35:22;;;;;;;;;;;24.00;48.80;;;;;;8328017;28;19976;-48
2021/07/19 08:39:23;;;;;;;;;;;24.00;48.80;;;;;;8327691;28;19967;-47
2021/07/19 08:43:23;;;;;;;;;;;24.00;48.70;;;;;;8331885;28;20393;-48
2021/07/19 08:47:24;;;;;;;;;;;24.10;48.80;;;;;;8327528;28;19928;-48
2021/07/19 08:51:24;;;;;;;;;;;24.10;48.80;;;;;;8327507;28;19921;-47
2021/07/19 08:55:25;;;;;;;;;;;24.00;48.70;;;;;;8326626;28;19925;-48
2021/07/19 08:59:26;;;;;;;;;;;24.10;48.80;;;;;;8332134;28;19914;-48
2021/07/19 09:03:26;;;;;;;;;;;24.10;48.80;;;;;;8327160;28;19918;-47
2021/07/19 09:07:27;;;;;;;;;;;24.10;48.80;;;;;;8326748;28;19921;-50
2021/07/19 09:11:27;;;;;;;;;;;24.10;48.80;;;;;;8326743;28;19917;-48
2021/07/19 09:15:32;;;;;;;;;;;24.20;49.40;;;;;;8326720;28;19921;-48
2021/07/19 09:19:40;;;;;;;;;;;24.20;48.80;;;;;;8330037;28;19914;-48
2021/07/19 09:23:41;;;;;;;;;;;24.20;48.80;;;;;;8327149;28;19940;-48
2021/07/19 09:27:52;;;;;;;;;;;24.20;48.80;;;;;;8326699;28;19959;-50
2021/07/19 09:31:54;;;;;;;;;;;24.30;48.80;;;;;;8326090;28;19944;-50
2021/07/19 09:35:54;;;;;;;;;;;24.20;48.80;;;;;;8330784;28;19932;-51
2021/07/19 09:39:56;;;;;;;;;;;24.30;48.80;;;;;;8326606;28;19924;-48
2021/07/19 09:43:57;;;;;;;;;;;24.30;48.90;;;;;;8325309;28;20298;-48
2021/07/19 09:47:58;;;;;;;;;;;24.30;48.80;;;;;;8326394;28;19963;-48
2021/07/19 09:52:00;;;;;;;;;;;24.30;48.80;;;;;;8326511;28;20008;-48
2021/07/19 09:56:06;;;;;;;;;;;24.30;48.80;;;;;;8330095;28;19952;-48
2021/07/19 10:00:07;;;;;;;;;;;24.30;48.80;;;;;;8326087;28;19917;-48
2021/07/19 10:04:09;;;;;;;;;;;24.40;48.90;;;;;;8325114;28;19917;-48
2021/07/19 10:08:18;;;;;;;;;;;24.40;48.90;;;;;;8324764;28;19967;-48
2021/07/19 10:12:19;;;;;;;;;;;24.40;48.80;;;;;;8330538;28;19943;-47
2021/07/19 10:16:20;;;;;;;;;;;24.40;48.80;;;;;;8325310;28;19932;-48
2021/07/19 10:20:20;;;;;;;;;;;24.50;48.80;;;;;;8325641;28;19921;-48
2021/07/19 10:24:21;;;;;;;;;;;24.50;48.70;;;;;;8325699;28;19917;-47
2021/07/19 10:28:22;;;;;;;;;;;24.50;48.70;;;;;;8325107;28;20302;-47
2021/07/19 10:32:23;;;;;;;;;;;24.50;48.70;;;;;;8336204;28;20296;-48
2021/07/19 10:36:29;;;;;;;;;;;24.50;48.70;;;;;;8331503;28;19931;-52
2021/07/19 10:40:31;;;;;;;;;;;24.60;48.70;;;;;;8331333;28;19921;-49
2021/07/19 10:44:36;;;;;;;;;;;24.60;48.70;;;;;;8331474;28;19917;-48
2021/07/19 10:48:37;;;;;;;;;;;24.60;48.60;;;;;;8335921;28;20004;-47
2021/07/19 10:52:38;;;;;;;;;;;24.60;48.60;;;;;;8331008;28;19917;-48
2021/07/19 10:56:39;;;;;;;;;;;24.70;48.60;;;;;;8330814;28;19925;-48
2021/07/19 11:00:40;;;;;;;;;;;24.70;48.60;;;;;;8330293;28;19920;-47
2021/07/19 11:04:46;;;;;;;;;;;24.70;48.50;;;;;;8330396;28;19924;-49
2021/07/19 11:08:48;;;;;;;;;;;24.80;48.50;;;;;;8335810;28;20302;-48
2021/07/19 11:12:50;;;;;;;;;;;24.80;48.60;;;;;;8330596;28;19917;-48
2021/07/19 11:16:51;;;;;;;;;;;24.80;48.50;;;;;;8329974;28;19932;-47
2021/07/19 11:20:53;;;;;;;;;;;24.80;48.50;;;;;;8324760;28;19918;-47
2021/07/19 11:25:06;;;;;;;;;;;24.80;48.40;;;;;;8301963;28;20382;-49
2021/07/19 11:29:06;;;;;;;;;;;24.80;48.40;;;;;;8298424;28;20020;-48
2021/07/19 11:33:11;;;;;;;;;;;24.90;48.50;;;;;;8318475;28;19917;-48
2021/07/19 11:37:11;;;;;;;;;;;24.80;48.40;;;;;;8329282;28;19921;-47
2021/07/19 11:41:23;;;;;;;;;;;24.90;48.40;;;;;;8329002;28;19920;-48
2021/07/19 11:45:23;;;;;;;;;;;24.90;48.40;;;;;;8334500;28;20016;-47
2021/07/19 11:49:24;;;;;;;;;;;24.90;48.40;;;;;;8329007;28;20040;-47
2021/07/19 11:53:24;;;;;;;;;;;25.00;48.30;;;;;;8329547;28;19925;-47
2021/07/19 11:57:25;;;;;;;;;;;25.00;48.30;;;;;;8329260;28;20024;-47
2021/07/19 12:01:27;;;;;;;;;;;25.00;48.30;;;;;;8333181;28;19913;-47
2021/07/19 12:05:28;;;;;;;;;;;25.00;48.30;;;;;;8299062;28;19925;-49
2021/07/19 12:09:29;;;;;;;;;;;25.10;48.30;;;;;;8317202;28;20020;-47
2021/07/19 12:13:33;;;;;;;;;;;25.10;48.30;;;;;;8318002;28;20420;-51
2021/07/19 12:17:35;;;;;;;;;;;25.10;48.30;;;;;;8298096;28;19917;-47
2021/07/19 12:21:38;;;;;;;;;;;25.10;48.30;;;;;;8333022;28;19913;-46
2021/07/19 12:25:38;;;;;;;;;;;25.10;48.20;;;;;;8327804;28;19917;-48
2021/07/19 12:29:42;;;;;;;;;;;25.20;48.30;;;;;;8328508;28;20390;-51
2021/07/19 12:33:43;;;;;;;;;;;25.20;48.30;;;;;;8328373;28;19927;-48
2021/07/19 12:37:51;;;;;;;;;;;25.20;48.30;;;;;;8332297;28;19913;-51
2021/07/19 12:41:53;;;;;;;;;;;25.20;48.30;;;;;;8327915;28;19960;-50
2021/07/19 12:45:53;;;;;;;;;;;25.20;48.30;;;;;;8327609;28;19960;-47
2021/07/19 12:49:54;;;;;;;;;;;25.20;48.30;;;;;;8327465;28;20309;-47
2021/07/19 12:53:58;;;;;;;;;;;25.20;48.30;;;;;;8327707;28;19932;-48
2021/07/19 12:57:59;;;;;;;;;;;25.20;48.20;;;;;;8332095;28;20370;-51
2021/07/19 13:02:01;;;;;;;;;;;25.20;48.70;;;;;;8326837;28;19917;-50
2021/07/19 13:06:01;;;;;;;;;;;25.20;48.20;;;;;;8327245;28;19921;-52
2021/07/19 13:10:11;;;;;;;;;;;25.30;48.20;;;;;;8327249;28;19967;-49
2021/07/19 13:14:16;;;;;;;;;;;25.30;48.20;;;;;;8331095;28;20386;-51
2021/07/19 13:18:20;;;;;;;;;;;25.30;48.20;;;;;;8326924;28;19924;-47
2021/07/19 13:22:25;;;;;;;;;;;25.30;48.20;;;;;;8326568;28;19918;-51
2021/07/19 13:26:29;;;;;;;;;;;25.30;48.20;;;;;;8327082;28;19917;-47
2021/07/19 13:30:31;;;;;;;;;;;25.30;48.20;;;;;;8326836;28;19931;-51
2021/07/19 13:34:31;;;;;;;;;;;25.40;48.20;;;;;;8330604;28;19930;-51
2021/07/19 13:38:33;;;;;;;;;;;25.40;48.20;;;;;;8326300;28;19932;-51
2021/07/19 13:42:34;;;;;;;;;;;25.40;48.10;;;;;;8326726;28;19924;-49
2021/07/19 13:46:35;;;;;;;;;;;25.40;48.10;;;;;;8325991;28;20392;-47
2021/07/19 13:50:35;;;;;;;;;;;25.40;48.10;;;;;;8331198;28;20286;-47
2021/07/19 13:54:36;;;;;;;;;;;25.40;48.10;;;;;;8326136;28;19925;-48
2021/07/19 13:58:42;;;;;;;;;;;25.40;48.10;;;;;;8325774;28;19917;-49
2021/07/19 14:02:43;;;;;;;;;;;25.50;48.20;;;;;;8319822;28;19918;-51
2021/07/19 14:06:44;;;;;;;;;;;25.40;48.10;;;;;;8299645;28;20137;-49
2021/07/19 14:10:45;;;;;;;;;;;25.50;48.10;;;;;;8336700;28;19917;-47
2021/07/19 14:14:46;;;;;;;;;;;25.50;48.00;;;;;;8332425;28;19925;-47
2021/07/19 14:18:46;;;;;;;;;;;25.50;48.00;;;;;;8332579;28;19913;-47
2021/07/19 14:22:47;;;;;;;;;;;25.60;48.00;;;;;;8331694;28;20000;-48
2021/07/19 14:26:47;;;;;;;;;;;25.50;47.90;;;;;;8336536;28;20294;-48
2021/07/19 14:30:48;;;;;;;;;;;25.60;48.00;;;;;;8331333;28;20301;-48
2021/07/19 14:34:48;;;;;;;;;;;25.60;48.00;;;;;;8331134;28;20432;-49
2021/07/19 14:38:49;;;;;;;;;;;25.60;48.00;;;;;;8331594;28;19920;-48
2021/07/19 14:42:50;;;;;;;;;;;25.60;47.90;;;;;;8336188;28;19924;-48
2021/07/19 14:46:50;;;;;;;;;;;25.60;47.90;;;;;;8330896;28;19928;-50
2021/07/19 14:50:51;;;;;;;;;;;25.60;47.80;;;;;;8331755;28;20370;-48
2021/07/19 14:54:52;;;;;;;;;;;25.60;47.90;;;;;;8331462;28;19929;-50
2021/07/19 14:58:52;;;;;;;;;;;25.60;48.00;;;;;;8330615;28;19917;-50
2021/07/19 15:02:52;;;;;;;;;;;25.60;48.00;;;;;;8335592;28;19921;-52
2021/07/19 15:06:53;;;;;;;;;;;25.60;48.00;;;;;;8330679;28;19964;-48
2021/07/19 15:10:53;;;;;;;;;;;25.60;48.00;;;;;;8330381;28;20397;-48
2021/07/19 15:14:54;;;;;;;;;;;25.60;48.00;;;;;;8330445;28;20027;-48
2021/07/19 15:18:54;;;;;;;;;;;25.60;47.90;;;;;;8333680;28;19914;-48
2021/07/19 15:22:55;;;;;;;;;;;25.70;48.00;;;;;;8330116;28;19917;-47
2021/07/19 15:26:55;;;;;;;;;;;25.70;47.90;;;;;;8330307;28;20000;-47
2021/07/19 15:30:56;;;;;;;;;;;25.70;47.90;;;;;;8330109;28;19918;-48
2021/07/19 15:34:56;;;;;;;;;;;25.70;47.90;;;;;;8333976;28;20382;-48
2021/07/19 15:38:57;;;;;;;;;;;25.70;47.90;;;;;;8329959;28;20000;-47
2021/07/19 15:42:57;;;;;;;;;;;25.70;47.90;;;;;;8329876;28;19924;-50
2021/07/19 15:46:58;;;;;;;;;;;25.80;47.90;;;;;;8329214;28;19924;-50
2021/07/19 15:50:58;;;;;;;;;;;25.80;47.90;;;;;;8329660;28;19917;-48
2021/07/19 15:54:58;;;;;;;;;;;25.80;47.90;;;;;;8333765;28;19921;-50
2021/07/19 15:58:59;;;;;;;;;;;25.80;47.90;;;;;;8328918;28;19918;-47
2021/07/19 16:02:59;;;;;;;;;;;25.80;47.90;;;;;;8329454;28;20349;-48
2021/07/19 16:07:00;;;;;;;;;;;25.80;47.90;;;;;;8328744;28;20255;-48
2021/07/19 16:11:01;;;;;;;;;;;25.80;48.00;;;;;;8332897;28;19920;-49
2021/07/19 16:15:02;;;;;;;;;;;25.70;48.00;;;;;;8329140;28;19925;-47
2021/07/19 16:19:03;;;;;;;;;;;25.80;48.20;;;;;;8329267;28;19923;-49
2021/07/19 16:23:03;;;;;;;;;;;25.70;48.60;;;;;;8327295;28;19918;-48
2021/07/19 16:27:04;;;;;;;;;;;25.70;49.50;;;;;;8328858;28;20425;-47
2021/07/19 16:31:04;;;;;;;;;;;25.70;49.80;;;;;;8331501;28;19917;-50
2021/07/19 16:35:05;;;;;;;;;;;25.70;49.10;;;;;;8327118;28;19968;-47
2021/07/19 16:39:06;;;;;;;;;;;25.70;48.90;;;;;;8328007;28;20302;-47
2021/07/19 16:43:06;;;;;;;;;;;25.70;49.00;;;;;;8327791;28;19924;-46
2021/07/19 16:47:07;;;;;;;;;;;25.70;48.90;;;;;;8331213;28;19924;-47
2021/07/19 16:51:07;;;;;;;;;;;25.60;48.90;;;;;;8327699;28;19924;-47
2021/07/19 16:55:08;;;;;;;;;;;25.60;48.80;;;;;;8327265;28;20406;-47
2021/07/19 16:59:09;;;;;;;;;;;25.60;48.80;;;;;;8326355;28;19924;-47
2021/07/19 17:03:09;;;;;;;;;;;25.60;48.70;;;;;;8331650;28;20016;-48
2021/07/19 17:07:10;;;;;;;;;;;25.60;48.70;;;;;;8326917;28;19988;-47
2021/07/19 17:11:10;;;;;;;;;;;25.60;48.60;;;;;;8326306;28;19929;-47
2021/07/19 17:15:12;;;;;;;;;;;25.60;48.70;;;;;;8326692;28;19925;-46
2021/07/19 17:19:17;;;;;;;;;;;25.60;48.60;;;;;;8326464;28;20050;-47
2021/07/19 17:23:20;;;;;;;;;;;25.60;48.60;;;;;;8330956;28;20354;-46
2021/07/19 17:27:21;;;;;;;;;;;25.60;48.50;;;;;;8326927;28;19923;-49
2021/07/19 17:31:21;;;;;;;;;;;25.60;48.60;;;;;;8326183;28;19917;-47
2021/07/19 17:35:23;;;;;;;;;;;25.60;48.50;;;;;;8326505;28;20062;-46
2021/07/19 17:39:23;;;;;;;;;;;25.60;48.60;;;;;;8330263;28;19982;-46
2021/07/19 17:43:24;;;;;;;;;;;25.60;48.60;;;;;;8325802;28;19925;-47
2021/07/19 17:47:24;;;;;;;;;;;25.60;48.70;;;;;;8326097;28;19975;-47
2021/07/19 17:51:24;;;;;;;;;;;25.60;48.70;;;;;;8326092;28;19932;-47
2021/07/19 17:55:25;;;;;;;;;;;25.60;48.90;;;;;;8327552;28;19921;-46
2021/07/19 17:59:26;;;;;;;;;;;25.60;48.80;;;;;;8328486;28;19913;-50
2021/07/19 18:03:26;;;;;;;;;;;25.60;48.70;;;;;;8325908;28;19917;-47
2021/07/19 18:07:27;;;;;;;;;;;25.60;48.80;;;;;;8324946;28;19921;-47
2021/07/19 18:11:28;;;;;;;;;;;25.60;48.80;;;;;;8326080;28;20286;-47
2021/07/19 18:15:29;;;;;;;;;;;25.60;48.80;;;;;;8330421;28;19964;-49
2021/07/19 18:19:30;;;;;;;;;;;25.60;48.90;;;;;;8325294;28;20374;-48
2021/07/19 18:23:32;;;;;;;;;;;25.60;48.90;;;;;;8326111;28;19924;-51
2021/07/19 18:31:52;;;;;;;;;;;25.60;49.00;;;;;;8327410;28;19959;-47
2021/07/19 18:35:56;;;;;;;;;;;25.60;48.90;;;;;;8329304;28;20267;-50
2021/07/19 18:39:56;;;;;;;;;;;25.60;49.00;;;;;;8324624;28;19917;-47
2021/07/19 18:43:57;;;;;;;;;;;25.60;49.00;;;;;;8324890;28;19917;-46
2021/07/19 18:47:57;;;;;;;;;;;25.60;49.00;;;;;;8325643;28;20408;-48
2021/07/19 18:51:58;;;;;;;;;;;25.60;49.00;;;;;;8332944;28;19991;-47
2021/07/19 18:55:58;;;;;;;;;;;25.60;49.00;;;;;;8304039;28;19925;-48
2021/07/19 18:59:59;;;;;;;;;;;25.60;49.00;;;;;;8316236;28;19917;-47
2021/07/19 19:03:59;;;;;;;;;;;25.60;49.00;;;;;;8331149;28;19913;-48
2021/07/19 19:08:00;;;;;;;;;;;25.60;49.00;;;;;;8334889;28;19921;-48
2021/07/19 19:12:00;;;;;;;;;;;25.60;49.00;;;;;;8330638;28;19917;-48
2021/07/19 19:16:01;;;;;;;;;;;25.60;48.90;;;;;;8330581;28;20294;-48
2021/07/19 19:20:03;;;;;;;;;;;25.50;49.00;;;;;;8329982;28;20267;-50
2021/07/19 19:24:04;;;;;;;;;;;25.50;49.50;;;;;;8330209;28;20027;-48
2021/07/19 19:28:07;;;;;;;;;;;25.50;49.00;;;;;;8334801;28;19925;-47
2021/07/19 19:32:07;;;;;;;;;;;25.60;49.10;;;;;;8329436;28;20362;-48
2021/07/19 19:36:08;;;;;;;;;;;25.50;49.10;;;;;;8315267;28;19937;-47
2021/07/19 19:40:10;;;;;;;;;;;25.50;49.00;;;;;;8303101;28;20385;-48
2021/07/19 19:44:10;;;;;;;;;;;25.50;49.10;;;;;;8333757;28;19917;-47
2021/07/19 19:48:11;;;;;;;;;;;25.50;49.10;;;;;;8329938;28;19956;-48
2021/07/19 19:52:12;;;;;;;;;;;25.50;49.10;;;;;;8329452;28;19921;-49
2021/07/19 19:56:13;;;;;;;;;;;25.50;49.10;;;;;;8319766;28;19929;-48
2021/07/19 20:00:14;;;;;;;;;;;25.50;49.10;;;;;;8299714;28;20008;-49
2021/07/19 20:04:15;;;;;;;;;;;25.50;49.10;;;;;;8330157;28;20008;-49
2021/07/19 20:08:15;;;;;;;;;;;25.40;49.00;;;;;;8329217;28;19967;-47
2021/07/19 20:12:15;;;;;;;;;;;25.40;49.10;;;;;;8328979;28;19913;-47
2021/07/19 20:16:16;;;;;;;;;;;25.40;49.10;;;;;;8328338;28;20028;-48
2021/07/19 20:20:17;;;;;;;;;;;25.40;49.00;;;;;;8333219;28;19919;-50
2021/07/19 20:24:20;;;;;;;;;;;25.40;49.10;;;;;;8327802;28;21311;-51
2021/07/19 20:28:21;;;;;;;;;;;25.40;49.00;;;;;;8327603;28;19953;-49
2021/07/19 20:32:21;;;;;;;;;;;25.40;49.10;;;;;;8328176;28;19959;-49
2021/07/19 20:36:22;;;;;;;;;;;25.40;49.00;;;;;;8332705;28;19931;-48
2021/07/19 20:40:22;;;;;;;;;;;25.40;48.90;;;;;;8327332;28;20361;-49
2021/07/19 20:44:23;;;;;;;;;;;25.40;49.10;;;;;;8327464;28;19996;-49
2021/07/19 20:48:23;;;;;;;;;;;25.40;49.00;;;;;;8327919;28;19959;-48
2021/07/19 20:52:24;;;;;;;;;;;25.40;49.00;;;;;;8326877;28;20298;-48
2021/07/19 20:56:24;;;;;;;;;;;25.40;49.10;;;;;;8299302;28;19933;-49
2021/07/19 21:00:25;;;;;;;;;;;25.40;49.00;;;;;;8319065;28;19976;-49
2021/07/19 21:04:25;;;;;;;;;;;25.40;49.00;;;;;;8326911;28;19935;-47
2021/07/19 21:08:26;;;;;;;;;;;25.30;48.90;;;;;;8327617;28;19921;-48
2021/07/19 21:12:26;;;;;;;;;;;25.30;49.00;;;;;;8331520;28;19936;-48
2021/07/19 21:16:27;;;;;;;;;;;25.30;49.00;;;;;;8325524;28;20405;-48
2021/07/19 21:20:28;;;;;;;;;;;25.40;49.00;;;;;;8327057;28;19925;-50
2021/07/19 21:24:28;;;;;;;;;;;25.40;49.10;;;;;;8326789;28;19917;-49
2021/07/19 21:28:29;;;;;;;;;;;25.30;49.00;;;;;;8330796;28;19921;-48
2021/07/19 21:32:29;;;;;;;;;;;25.30;49.10;;;;;;8327087;28;19968;-49
2021/07/19 21:36:29;;;;;;;;;;;25.30;49.00;;;;;;8326586;28;19925;-48
2021/07/19 21:40:32;;;;;;;;;;;25.30;49.00;;;;;;8326319;28;19913;-48
2021/07/19 21:44:32;;;;;;;;;;;25.30;49.00;;;;;;8326777;28;19951;-48
2021/07/19 21:48:33;;;;;;;;;;;25.30;49.00;;;;;;8331046;28;19917;-48
2021/07/19 21:52:33;;;;;;;;;;;25.30;49.00;;;;;;8326675;28;19918;-48
2021/07/19 21:56:34;;;;;;;;;;;25.30;49.00;;;;;;8326551;28;20279;-48
2021/07/19 22:00:34;;;;;;;;;;;25.30;49.00;;;;;;8325258;28;20015;-48
2021/07/19 22:04:35;;;;;;;;;;;25.30;49.00;;;;;;8330206;28;19967;-50
2021/07/19 22:08:35;;;;;;;;;;;25.20;49.00;;;;;;8325955;28;19921;-48
2021/07/19 22:12:36;;;;;;;;;;;25.30;49.00;;;;;;8325915;28;20354;-48
2021/07/19 22:16:36;;;;;;;;;;;25.20;49.00;;;;;;8325362;28;19925;-48
2021/07/19 22:20:37;;;;;;;;;;;25.20;48.90;;;;;;8330570;28;20392;-48
2021/07/19 22:24:37;;;;;;;;;;;25.20;48.90;;;;;;8325841;28;20259;-49
2021/07/19 22:28:38;;;;;;;;;;;25.20;49.00;;;;;;8331176;28;20274;-50
2021/07/19 22:32:38;;;;;;;;;;;25.20;49.00;;;;;;8332166;28;20308;-48
2021/07/19 22:36:39;;;;;;;;;;;25.20;49.00;;;;;;8331791;28;19956;-51
2021/07/19 22:40:39;;;;;;;;;;;25.20;49.00;;;;;;8335861;28;19919;-52
2021/07/19 22:44:40;;;;;;;;;;;25.20;49.00;;;;;;8331875;28;19924;-48
2021/07/19 22:48:40;;;;;;;;;;;25.20;49.00;;;;;;8331393;28;19913;-49
2021/07/19 22:52:41;;;;;;;;;;;25.20;49.00;;;;;;8330826;28;19924;-49
2021/07/19 22:56:42;;;;;;;;;;;25.10;48.90;;;;;;8335834;28;19921;-48
2021/07/19 23:00:43;;;;;;;;;;;25.20;49.00;;;;;;8331061;28;19940;-50
2021/07/19 23:04:44;;;;;;;;;;;25.10;49.00;;;;;;8311057;28;20279;-50
2021/07/19 23:08:44;;;;;;;;;;;25.10;48.90;;;;;;8308911;28;19925;-48
2021/07/19 23:12:44;;;;;;;;;;;25.10;49.00;;;;;;8331961;28;19921;-48
2021/07/19 23:16:45;;;;;;;;;;;25.10;48.90;;;;;;8333443;28;19956;-49
2021/07/19 23:20:45;;;;;;;;;;;25.10;49.00;;;;;;8330791;28;20378;-49
2021/07/19 23:24:46;;;;;;;;;;;25.20;49.00;;;;;;8330318;28;19924;-51